sensor_id;sensor_type;location;lat;lon;timestamp;P1;durP1;ratioP1;P2;durP2;ratioP2
34072;SDS011;20346;52.702;16.886;2022-08-21T00:02:36;4.40;;;3.70;;
34072;SDS011;20346;52.702;16.886;2022-08-21T00:05:22;4.42;;;4.03;;
34072;SDS011;20346;52.702;16.886;2022-08-21T00:08:08;3.85;;;3.55;;
34072;SDS011;20346;52.702;16.886;2022-08-21T00:10:53;3.87;;;3.58;;
34072;SDS011;20346;52.702;16.886;2022-08-21T00:13:39;6.53;;;3.92;;
34072;SDS011;20346;52.702;16.886;2022-08-21T00:16:24;4.08;;;3.70;;
34072;SDS011;20346;52.702;16.886;2022-08-21T00:19:09;4.47;;;4.03;;
34072;SDS011;20346;52.702;16.886;2022-08-21T00:21:54;7.95;;;3.98;;
34072;SDS011;20346;52.702;16.886;2022-08-21T00:24:39;4.22;;;3.55;;
34072;SDS011;20346;52.702;16.886;2022-08-21T00:27:24;4.08;;;3.77;;
34072;SDS011;20346;52.702;16.886;2022-08-21T00:30:10;5.55;;;3.87;;
34072;SDS011;20346;52.702;16.886;2022-08-21T00:32:58;4.15;;;3.77;;
34072;SDS011;20346;52.702;16.886;2022-08-21T00:35:44;4.83;;;4.40;;
34072;SDS011;20346;52.702;16.886;2022-08-21T00:38:28;5.15;;;4.28;;
34072;SDS011;20346;52.702;16.886;2022-08-21T00:41:13;7.70;;;4.70;;
34072;SDS011;20346;52.702;16.886;2022-08-21T00:43:58;5.53;;;4.60;;
34072;SDS011;20346;52.702;16.886;2022-08-21T00:46:43;4.92;;;4.53;;
34072;SDS011;20346;52.702;16.886;2022-08-21T00:49:28;5.17;;;4.78;;
34072;SDS011;20346;52.702;16.886;2022-08-21T00:52:18;5.22;;;4.72;;
34072;SDS011;20346;52.702;16.886;2022-08-21T00:55:05;5.33;;;4.90;;
34072;SDS011;20346;52.702;16.886;2022-08-21T00:57:54;5.70;;;5.17;;
34072;SDS011;20346;52.702;16.886;2022-08-21T01:00:42;6.58;;;5.03;;
34072;SDS011;20346;52.702;16.886;2022-08-21T01:03:32;5.53;;;5.03;;
34072;SDS011;20346;52.702;16.886;2022-08-21T01:06:18;10.65;;;5.62;;
34072;SDS011;20346;52.702;16.886;2022-08-21T01:09:04;7.47;;;5.67;;
34072;SDS011;20346;52.702;16.886;2022-08-21T01:11:49;6.47;;;5.87;;
34072;SDS011;20346;52.702;16.886;2022-08-21T01:14:35;7.55;;;5.80;;
34072;SDS011;20346;52.702;16.886;2022-08-21T01:17:20;8.08;;;6.25;;
34072;SDS011;20346;52.702;16.886;2022-08-21T01:20:07;6.60;;;6.05;;
34072;SDS011;20346;52.702;16.886;2022-08-21T01:22:54;6.80;;;6.20;;
34072;SDS011;20346;52.702;16.886;2022-08-21T01:25:39;7.62;;;6.92;;
34072;SDS011;20346;52.702;16.886;2022-08-21T01:28:25;8.08;;;6.67;;
34072;SDS011;20346;52.702;16.886;2022-08-21T01:31:14;7.42;;;6.70;;
34072;SDS011;20346;52.702;16.886;2022-08-21T01:34:01;7.65;;;6.83;;
34072;SDS011;20346;52.702;16.886;2022-08-21T01:36:47;7.78;;;6.40;;
34072;SDS011;20346;52.702;16.886;2022-08-21T01:39:32;6.90;;;6.30;;
34072;SDS011;20346;52.702;16.886;2022-08-21T01:42:19;7.80;;;7.15;;
34072;SDS011;20346;52.702;16.886;2022-08-21T01:45:05;7.87;;;7.08;;
34072;SDS011;20346;52.702;16.886;2022-08-21T01:47:51;10.00;;;7.00;;
34072;SDS011;20346;52.702;16.886;2022-08-21T01:50:36;7.00;;;6.45;;
34072;SDS011;20346;52.702;16.886;2022-08-21T01:53:21;7.30;;;6.78;;
34072;SDS011;20346;52.702;16.886;2022-08-21T01:56:07;7.97;;;7.17;;
34072;SDS011;20346;52.702;16.886;2022-08-21T01:58:55;8.45;;;7.65;;
34072;SDS011;20346;52.702;16.886;2022-08-21T02:01:40;8.95;;;7.85;;
34072;SDS011;20346;52.702;16.886;2022-08-21T02:04:25;7.90;;;7.20;;
34072;SDS011;20346;52.702;16.886;2022-08-21T02:07:10;8.25;;;7.55;;
34072;SDS011;20346;52.702;16.886;2022-08-21T02:09:55;8.70;;;8.00;;
34072;SDS011;20346;52.702;16.886;2022-08-21T02:12:40;8.85;;;7.97;;
34072;SDS011;20346;52.702;16.886;2022-08-21T02:15:26;9.65;;;7.62;;
34072;SDS011;20346;52.702;16.886;2022-08-21T02:18:13;7.92;;;7.25;;
34072;SDS011;20346;52.702;16.886;2022-08-21T02:20:58;7.55;;;6.97;;
34072;SDS011;20346;52.702;16.886;2022-08-21T02:23:43;7.22;;;6.67;;
34072;SDS011;20346;52.702;16.886;2022-08-21T02:26:29;7.87;;;7.15;;
34072;SDS011;20346;52.702;16.886;2022-08-21T02:29:14;7.53;;;6.90;;
34072;SDS011;20346;52.702;16.886;2022-08-21T02:31:59;7.12;;;6.50;;
34072;SDS011;20346;52.702;16.886;2022-08-21T02:34:44;7.50;;;6.87;;
34072;SDS011;20346;52.702;16.886;2022-08-21T02:37:29;7.28;;;6.62;;
34072;SDS011;20346;52.702;16.886;2022-08-21T02:40:15;7.12;;;6.33;;
34072;SDS011;20346;52.702;16.886;2022-08-21T02:43:03;6.35;;;5.75;;
34072;SDS011;20346;52.702;16.886;2022-08-21T02:45:51;6.03;;;5.58;;
34072;SDS011;20346;52.702;16.886;2022-08-21T02:48:37;5.83;;;5.33;;
34072;SDS011;20346;52.702;16.886;2022-08-21T02:51:22;6.25;;;5.50;;
34072;SDS011;20346;52.702;16.886;2022-08-21T02:54:07;8.58;;;5.92;;
34072;SDS011;20346;52.702;16.886;2022-08-21T02:56:53;6.08;;;5.58;;
34072;SDS011;20346;52.702;16.886;2022-08-21T02:59:37;6.05;;;5.55;;
34072;SDS011;20346;52.702;16.886;2022-08-21T03:02:24;5.65;;;5.15;;
34072;SDS011;20346;52.702;16.886;2022-08-21T03:05:10;5.33;;;4.93;;
34072;SDS011;20346;52.702;16.886;2022-08-21T03:07:55;5.67;;;4.67;;
34072;SDS011;20346;52.702;16.886;2022-08-21T03:10:42;4.78;;;4.47;;
34072;SDS011;20346;52.702;16.886;2022-08-21T03:13:31;5.22;;;4.53;;
34072;SDS011;20346;52.702;16.886;2022-08-21T03:16:16;5.43;;;4.93;;
34072;SDS011;20346;52.702;16.886;2022-08-21T03:19:03;4.55;;;4.25;;
34072;SDS011;20346;52.702;16.886;2022-08-21T03:21:48;5.03;;;4.70;;
34072;SDS011;20346;52.702;16.886;2022-08-21T03:24:33;4.58;;;4.17;;
34072;SDS011;20346;52.702;16.886;2022-08-21T03:27:18;5.08;;;4.58;;
34072;SDS011;20346;52.702;16.886;2022-08-21T03:30:05;5.05;;;4.65;;
34072;SDS011;20346;52.702;16.886;2022-08-21T03:32:51;4.42;;;4.12;;
34072;SDS011;20346;52.702;16.886;2022-08-21T03:35:36;4.67;;;4.25;;
34072;SDS011;20346;52.702;16.886;2022-08-21T03:38:21;5.08;;;4.55;;
34072;SDS011;20346;52.702;16.886;2022-08-21T03:41:07;4.70;;;4.33;;
34072;SDS011;20346;52.702;16.886;2022-08-21T03:43:52;4.28;;;3.50;;
34072;SDS011;20346;52.702;16.886;2022-08-21T03:46:37;4.28;;;3.67;;
34072;SDS011;20346;52.702;16.886;2022-08-21T03:49:24;3.72;;;3.47;;
34072;SDS011;20346;52.702;16.886;2022-08-21T03:52:09;3.95;;;3.65;;
34072;SDS011;20346;52.702;16.886;2022-08-21T03:54:54;4.33;;;3.67;;
34072;SDS011;20346;52.702;16.886;2022-08-21T03:57:39;4.10;;;3.80;;
34072;SDS011;20346;52.702;16.886;2022-08-21T04:00:25;3.33;;;3.13;;
34072;SDS011;20346;52.702;16.886;2022-08-21T04:03:10;3.37;;;3.17;;
34072;SDS011;20346;52.702;16.886;2022-08-21T04:05:56;3.08;;;2.87;;
34072;SDS011;20346;52.702;16.886;2022-08-21T04:08:41;3.37;;;3.17;;
34072;SDS011;20346;52.702;16.886;2022-08-21T04:11:26;2.95;;;2.75;;
34072;SDS011;20346;52.702;16.886;2022-08-21T04:14:12;3.77;;;3.05;;
34072;SDS011;20346;52.702;16.886;2022-08-21T04:19:43;4.65;;;3.10;;
34072;SDS011;20346;52.702;16.886;2022-08-21T04:22:29;3.37;;;3.17;;
34072;SDS011;20346;52.702;16.886;2022-08-21T04:25:14;3.12;;;2.92;;
34072;SDS011;20346;52.702;16.886;2022-08-21T04:27:59;2.83;;;2.62;;
34072;SDS011;20346;52.702;16.886;2022-08-21T04:30:46;3.05;;;2.85;;
34072;SDS011;20346;52.702;16.886;2022-08-21T04:33:31;3.02;;;2.80;;
34072;SDS011;20346;52.702;16.886;2022-08-21T04:36:16;3.00;;;2.80;;
34072;SDS011;20346;52.702;16.886;2022-08-21T04:39:02;3.17;;;2.87;;
34072;SDS011;20346;52.702;16.886;2022-08-21T04:41:47;4.80;;;3.12;;
34072;SDS011;20346;52.702;16.886;2022-08-21T04:44:33;3.10;;;2.80;;
34072;SDS011;20346;52.702;16.886;2022-08-21T04:47:19;3.07;;;2.77;;
34072;SDS011;20346;52.702;16.886;2022-08-21T04:50:04;2.47;;;2.27;;
34072;SDS011;20346;52.702;16.886;2022-08-21T04:52:50;4.08;;;2.30;;
34072;SDS011;20346;52.702;16.886;2022-08-21T04:55:35;2.60;;;2.40;;
34072;SDS011;20346;52.702;16.886;2022-08-21T04:58:22;3.35;;;2.40;;
34072;SDS011;20346;52.702;16.886;2022-08-21T05:01:11;5.03;;;3.27;;
34072;SDS011;20346;52.702;16.886;2022-08-21T05:03:59;3.87;;;3.45;;
34072;SDS011;20346;52.702;16.886;2022-08-21T05:06:48;4.12;;;3.72;;
34072;SDS011;20346;52.702;16.886;2022-08-21T05:09:34;4.22;;;3.83;;
34072;SDS011;20346;52.702;16.886;2022-08-21T05:12:20;4.37;;;3.98;;
34072;SDS011;20346;52.702;16.886;2022-08-21T05:15:06;4.22;;;3.92;;
34072;SDS011;20346;52.702;16.886;2022-08-21T05:17:52;6.67;;;4.78;;
34072;SDS011;20346;52.702;16.886;2022-08-21T05:20:37;7.33;;;4.62;;
34072;SDS011;20346;52.702;16.886;2022-08-21T05:23:22;5.22;;;4.33;;
34072;SDS011;20346;52.702;16.886;2022-08-21T05:26:07;8.30;;;4.42;;
34072;SDS011;20346;52.702;16.886;2022-08-21T05:28:52;7.08;;;3.60;;
34072;SDS011;20346;52.702;16.886;2022-08-21T05:31:37;4.10;;;3.77;;
34072;SDS011;20346;52.702;16.886;2022-08-21T05:34:22;4.42;;;3.70;;
34072;SDS011;20346;52.702;16.886;2022-08-21T05:37:10;4.87;;;4.45;;
34072;SDS011;20346;52.702;16.886;2022-08-21T05:39:56;4.35;;;3.92;;
34072;SDS011;20346;52.702;16.886;2022-08-21T05:42:41;4.62;;;4.22;;
34072;SDS011;20346;52.702;16.886;2022-08-21T05:45:27;5.40;;;3.92;;
34072;SDS011;20346;52.702;16.886;2022-08-21T05:48:17;4.10;;;3.80;;
34072;SDS011;20346;52.702;16.886;2022-08-21T05:51:08;4.15;;;3.85;;
34072;SDS011;20346;52.702;16.886;2022-08-21T05:53:55;4.42;;;4.12;;
34072;SDS011;20346;52.702;16.886;2022-08-21T05:56:40;4.92;;;4.47;;
34072;SDS011;20346;52.702;16.886;2022-08-21T05:59:26;5.45;;;5.05;;
34072;SDS011;20346;52.702;16.886;2022-08-21T06:02:11;4.58;;;4.25;;
34072;SDS011;20346;52.702;16.886;2022-08-21T06:04:56;5.03;;;4.40;;
34072;SDS011;20346;52.702;16.886;2022-08-21T06:07:41;4.70;;;4.30;;
34072;SDS011;20346;52.702;16.886;2022-08-21T06:10:27;5.95;;;3.98;;
34072;SDS011;20346;52.702;16.886;2022-08-21T06:13:12;3.77;;;3.47;;
34072;SDS011;20346;52.702;16.886;2022-08-21T06:16:07;3.90;;;3.60;;
34072;SDS011;20346;52.702;16.886;2022-08-21T06:18:56;3.92;;;3.27;;
34072;SDS011;20346;52.702;16.886;2022-08-21T06:21:41;3.20;;;3.00;;
34072;SDS011;20346;52.702;16.886;2022-08-21T06:24:26;3.30;;;3.10;;
34072;SDS011;20346;52.702;16.886;2022-08-21T06:27:12;3.10;;;2.90;;
34072;SDS011;20346;52.702;16.886;2022-08-21T06:29:57;3.40;;;3.10;;
34072;SDS011;20346;52.702;16.886;2022-08-21T06:32:42;3.40;;;3.10;;
34072;SDS011;20346;52.702;16.886;2022-08-21T06:35:28;3.22;;;3.02;;
34072;SDS011;20346;52.702;16.886;2022-08-21T06:38:14;3.30;;;3.00;;
34072;SDS011;20346;52.702;16.886;2022-08-21T06:40:59;4.10;;;3.33;;
34072;SDS011;20346;52.702;16.886;2022-08-21T06:43:44;3.70;;;3.22;;
34072;SDS011;20346;52.702;16.886;2022-08-21T06:46:29;4.78;;;2.98;;
34072;SDS011;20346;52.702;16.886;2022-08-21T06:49:15;3.58;;;3.27;;
34072;SDS011;20346;52.702;16.886;2022-08-21T06:52:00;3.62;;;3.33;;
34072;SDS011;20346;52.702;16.886;2022-08-21T06:54:45;3.12;;;2.92;;
34072;SDS011;20346;52.702;16.886;2022-08-21T06:57:31;3.47;;;3.25;;
34072;SDS011;20346;52.702;16.886;2022-08-21T07:00:16;3.33;;;3.05;;
34072;SDS011;20346;52.702;16.886;2022-08-21T07:03:01;3.22;;;2.90;;
34072;SDS011;20346;52.702;16.886;2022-08-21T07:05:46;3.35;;;3.15;;
34072;SDS011;20346;52.702;16.886;2022-08-21T07:08:31;4.70;;;3.10;;
34072;SDS011;20346;52.702;16.886;2022-08-21T07:11:19;3.80;;;3.20;;
34072;SDS011;20346;52.702;16.886;2022-08-21T07:14:05;3.87;;;3.58;;
34072;SDS011;20346;52.702;16.886;2022-08-21T07:16:50;4.58;;;3.72;;
34072;SDS011;20346;52.702;16.886;2022-08-21T07:19:36;3.05;;;2.85;;
34072;SDS011;20346;52.702;16.886;2022-08-21T07:22:21;3.50;;;3.20;;
34072;SDS011;20346;52.702;16.886;2022-08-21T07:25:07;3.52;;;3.30;;
34072;SDS011;20346;52.702;16.886;2022-08-21T07:27:53;3.70;;;3.40;;
34072;SDS011;20346;52.702;16.886;2022-08-21T07:30:38;3.72;;;3.40;;
34072;SDS011;20346;52.702;16.886;2022-08-21T07:33:24;3.47;;;3.20;;
34072;SDS011;20346;52.702;16.886;2022-08-21T07:36:11;3.67;;;3.45;;
34072;SDS011;20346;52.702;16.886;2022-08-21T07:38:57;3.30;;;3.00;;
34072;SDS011;20346;52.702;16.886;2022-08-21T07:41:42;3.87;;;3.58;;
34072;SDS011;20346;52.702;16.886;2022-08-21T07:44:27;3.45;;;3.20;;
34072;SDS011;20346;52.702;16.886;2022-08-21T07:47:12;3.67;;;3.37;;
34072;SDS011;20346;52.702;16.886;2022-08-21T07:49:57;3.80;;;3.50;;
34072;SDS011;20346;52.702;16.886;2022-08-21T07:52:42;4.65;;;3.08;;
34072;SDS011;20346;52.702;16.886;2022-08-21T07:55:27;3.10;;;2.90;;
34072;SDS011;20346;52.702;16.886;2022-08-21T07:58:12;3.40;;;3.10;;
34072;SDS011;20346;52.702;16.886;2022-08-21T08:00:57;3.25;;;3.05;;
34072;SDS011;20346;52.702;16.886;2022-08-21T08:06:29;3.17;;;2.98;;
34072;SDS011;20346;52.702;16.886;2022-08-21T08:09:14;4.47;;;3.40;;
34072;SDS011;20346;52.702;16.886;2022-08-21T08:12:00;3.50;;;3.20;;
34072;SDS011;20346;52.702;16.886;2022-08-21T08:14:45;2.92;;;2.72;;
34072;SDS011;20346;52.702;16.886;2022-08-21T08:17:30;2.95;;;2.67;;
34072;SDS011;20346;52.702;16.886;2022-08-21T08:20:18;3.95;;;3.05;;
34072;SDS011;20346;52.702;16.886;2022-08-21T08:23:04;2.50;;;2.30;;
34072;SDS011;20346;52.702;16.886;2022-08-21T08:25:49;3.10;;;2.83;;
34072;SDS011;20346;52.702;16.886;2022-08-21T08:28:34;5.05;;;2.67;;
34072;SDS011;20346;52.702;16.886;2022-08-21T08:31:20;2.62;;;2.42;;
34072;SDS011;20346;52.702;16.886;2022-08-21T08:34:05;2.93;;;2.73;;
34072;SDS011;20346;52.702;16.886;2022-08-21T08:36:50;3.20;;;2.90;;
34072;SDS011;20346;52.702;16.886;2022-08-21T08:39:36;3.08;;;2.87;;
34072;SDS011;20346;52.702;16.886;2022-08-21T08:45:16;2.67;;;2.47;;
34072;SDS011;20346;52.702;16.886;2022-08-21T08:48:06;2.95;;;2.75;;
34072;SDS011;20346;52.702;16.886;2022-08-21T08:50:55;3.80;;;2.37;;
34072;SDS011;20346;52.702;16.886;2022-08-21T08:53:48;2.80;;;2.60;;
34072;SDS011;20346;52.702;16.886;2022-08-21T08:56:38;3.15;;;2.85;;
34072;SDS011;20346;52.702;16.886;2022-08-21T08:59:30;3.17;;;2.90;;
34072;SDS011;20346;52.702;16.886;2022-08-21T09:02:13;2.62;;;2.42;;
34072;SDS011;20346;52.702;16.886;2022-08-21T09:05:00;2.83;;;2.62;;
34072;SDS011;20346;52.702;16.886;2022-08-21T09:13:58;2.70;;;2.50;;
34072;SDS011;20346;52.702;16.886;2022-08-21T09:20:32;3.02;;;2.35;;
34072;SDS011;20346;52.702;16.886;2022-08-21T09:29:55;3.20;;;2.92;;
34072;SDS011;20346;52.702;16.886;2022-08-21T09:32:41;3.70;;;3.40;;
34072;SDS011;20346;52.702;16.886;2022-08-21T09:35:26;3.45;;;3.15;;
34072;SDS011;20346;52.702;16.886;2022-08-21T09:38:22;3.72;;;3.42;;
34072;SDS011;20346;52.702;16.886;2022-08-21T09:41:04;3.60;;;3.30;;
34072;SDS011;20346;52.702;16.886;2022-08-21T09:43:53;5.60;;;3.30;;
34072;SDS011;20346;52.702;16.886;2022-08-21T09:46:38;3.72;;;3.30;;
34072;SDS011;20346;52.702;16.886;2022-08-21T09:49:36;3.67;;;3.12;;
34072;SDS011;20346;52.702;16.886;2022-08-21T09:52:22;3.35;;;2.85;;
34072;SDS011;20346;52.702;16.886;2022-08-21T09:55:13;3.45;;;3.15;;
34072;SDS011;20346;52.702;16.886;2022-08-21T09:58:04;5.10;;;3.45;;
34072;SDS011;20346;52.702;16.886;2022-08-21T10:03:44;4.45;;;3.15;;
34072;SDS011;20346;52.702;16.886;2022-08-21T10:06:29;4.15;;;3.37;;
34072;SDS011;20346;52.702;16.886;2022-08-21T10:09:16;3.98;;;3.37;;
34072;SDS011;20346;52.702;16.886;2022-08-21T10:15:24;3.77;;;3.47;;
34072;SDS011;20346;52.702;16.886;2022-08-21T10:18:39;4.58;;;3.20;;
34072;SDS011;20346;52.702;16.886;2022-08-21T10:22:02;3.85;;;3.33;;
34072;SDS011;20346;52.702;16.886;2022-08-21T10:28:13;3.27;;;3.08;;
34072;SDS011;20346;52.702;16.886;2022-08-21T10:40:53;2.98;;;2.77;;
34072;SDS011;20346;52.702;16.886;2022-08-21T10:44:01;2.87;;;2.42;;
34072;SDS011;20346;52.702;16.886;2022-08-21T10:47:11;2.55;;;2.35;;
34072;SDS011;20346;52.702;16.886;2022-08-21T10:53:05;3.83;;;2.30;;
34072;SDS011;20346;52.702;16.886;2022-08-21T10:56:13;3.52;;;2.70;;
34072;SDS011;20346;52.702;16.886;2022-08-21T10:59:15;3.50;;;2.35;;
34072;SDS011;20346;52.702;16.886;2022-08-21T11:02:25;2.30;;;2.10;;
34072;SDS011;20346;52.702;16.886;2022-08-21T11:05:15;3.72;;;2.25;;
34072;SDS011;20346;52.702;16.886;2022-08-21T11:08:08;2.40;;;1.98;;
34072;SDS011;20346;52.702;16.886;2022-08-21T11:17:10;2.98;;;2.37;;
34072;SDS011;20346;52.702;16.886;2022-08-21T11:23:01;2.67;;;2.00;;
34072;SDS011;20346;52.702;16.886;2022-08-21T11:26:14;2.80;;;1.75;;
34072;SDS011;20346;52.702;16.886;2022-08-21T11:29:16;4.08;;;2.12;;
34072;SDS011;20346;52.702;16.886;2022-08-21T11:38:53;1.80;;;1.70;;
34072;SDS011;20346;52.702;16.886;2022-08-21T11:41:40;2.33;;;1.90;;
34072;SDS011;20346;52.702;16.886;2022-08-21T11:47:58;3.33;;;1.83;;
34072;SDS011;20346;52.702;16.886;2022-08-21T11:50:50;3.73;;;2.00;;
34072;SDS011;20346;52.702;16.886;2022-08-21T11:53:39;3.85;;;1.90;;
34072;SDS011;20346;52.702;16.886;2022-08-21T11:56:31;1.77;;;1.65;;
34072;SDS011;20346;52.702;16.886;2022-08-21T11:59:26;2.55;;;2.00;;
34072;SDS011;20346;52.702;16.886;2022-08-21T12:02:18;2.27;;;1.80;;
34072;SDS011;20346;52.702;16.886;2022-08-21T12:05:08;3.72;;;1.98;;
34072;SDS011;20346;52.702;16.886;2022-08-21T12:08:05;2.10;;;2.00;;
34072;SDS011;20346;52.702;16.886;2022-08-21T12:11:09;4.20;;;1.90;;
34072;SDS011;20346;52.702;16.886;2022-08-21T12:17:03;2.87;;;1.72;;
34072;SDS011;20346;52.702;16.886;2022-08-21T12:19:44;2.08;;;1.80;;
34072;SDS011;20346;52.702;16.886;2022-08-21T12:22:47;2.00;;;1.82;;
34072;SDS011;20346;52.702;16.886;2022-08-21T12:28:49;1.85;;;1.72;;
34072;SDS011;20346;52.702;16.886;2022-08-21T12:31:35;4.00;;;1.82;;
34072;SDS011;20346;52.702;16.886;2022-08-21T12:34:21;2.62;;;2.10;;
34072;SDS011;20346;52.702;16.886;2022-08-21T12:40:30;2.00;;;1.90;;
34072;SDS011;20346;52.702;16.886;2022-08-21T12:43:21;2.10;;;1.80;;
34072;SDS011;20346;52.702;16.886;2022-08-21T12:46:19;3.60;;;2.35;;
34072;SDS011;20346;52.702;16.886;2022-08-21T12:49:12;2.27;;;1.90;;
34072;SDS011;20346;52.702;16.886;2022-08-21T12:52:51;2.50;;;1.60;;
34072;SDS011;20346;52.702;16.886;2022-08-21T12:55:13;1.87;;;1.47;;
34072;SDS011;20346;52.702;16.886;2022-08-21T12:58:01;3.65;;;1.50;;
34072;SDS011;20346;52.702;16.886;2022-08-21T13:00:50;2.02;;;1.50;;
34072;SDS011;20346;52.702;16.886;2022-08-21T13:03:58;2.75;;;1.57;;
34072;SDS011;20346;52.702;16.886;2022-08-21T13:07:05;1.55;;;1.35;;
34072;SDS011;20346;52.702;16.886;2022-08-21T13:09:59;1.95;;;1.47;;
34072;SDS011;20346;52.702;16.886;2022-08-21T13:13:08;2.33;;;1.60;;
34072;SDS011;20346;52.702;16.886;2022-08-21T13:15:57;2.92;;;1.40;;
34072;SDS011;20346;52.702;16.886;2022-08-21T13:18:57;2.12;;;1.52;;
34072;SDS011;20346;52.702;16.886;2022-08-21T13:21:49;2.98;;;1.80;;
34072;SDS011;20346;52.702;16.886;2022-08-21T13:24:36;3.00;;;1.60;;
34072;SDS011;20346;52.702;16.886;2022-08-21T13:27:28;1.95;;;1.30;;
34072;SDS011;20346;52.702;16.886;2022-08-21T13:30:18;3.15;;;1.42;;
34072;SDS011;20346;52.702;16.886;2022-08-21T13:33:06;2.08;;;1.67;;
34072;SDS011;20346;52.702;16.886;2022-08-21T13:38:46;1.70;;;1.60;;
34072;SDS011;20346;52.702;16.886;2022-08-21T13:41:33;2.80;;;1.80;;
34072;SDS011;20346;52.702;16.886;2022-08-21T13:44:23;4.53;;;1.55;;
34072;SDS011;20346;52.702;16.886;2022-08-21T13:47:27;2.33;;;1.70;;
34072;SDS011;20346;52.702;16.886;2022-08-21T13:50:12;3.60;;;1.62;;
34072;SDS011;20346;52.702;16.886;2022-08-21T13:53:02;2.52;;;1.80;;
34072;SDS011;20346;52.702;16.886;2022-08-21T13:55:50;3.30;;;1.60;;
34072;SDS011;20346;52.702;16.886;2022-08-21T13:58:43;2.93;;;1.47;;
34072;SDS011;20346;52.702;16.886;2022-08-21T14:01:36;5.22;;;2.02;;
34072;SDS011;20346;52.702;16.886;2022-08-21T14:04:39;2.20;;;1.77;;
34072;SDS011;20346;52.702;16.886;2022-08-21T14:07:40;2.92;;;1.60;;
34072;SDS011;20346;52.702;16.886;2022-08-21T14:10:27;2.92;;;1.40;;
34072;SDS011;20346;52.702;16.886;2022-08-21T14:16:25;2.75;;;1.82;;
34072;SDS011;20346;52.702;16.886;2022-08-21T14:19:48;2.50;;;1.95;;
34072;SDS011;20346;52.702;16.886;2022-08-21T14:31:18;2.15;;;1.40;;
34072;SDS011;20346;52.702;16.886;2022-08-21T14:34:06;2.15;;;1.65;;
34072;SDS011;20346;52.702;16.886;2022-08-21T14:36:51;2.17;;;1.30;;
34072;SDS011;20346;52.702;16.886;2022-08-21T14:39:37;4.03;;;1.82;;
34072;SDS011;20346;52.702;16.886;2022-08-21T14:42:22;3.00;;;1.72;;
34072;SDS011;20346;52.702;16.886;2022-08-21T14:45:30;3.67;;;1.85;;
34072;SDS011;20346;52.702;16.886;2022-08-21T14:48:02;3.98;;;1.85;;
34072;SDS011;20346;52.702;16.886;2022-08-21T14:50:48;3.33;;;1.80;;
34072;SDS011;20346;52.702;16.886;2022-08-21T14:53:33;3.20;;;2.08;;
34072;SDS011;20346;52.702;16.886;2022-08-21T14:56:18;3.47;;;1.67;;
34072;SDS011;20346;52.702;16.886;2022-08-21T14:59:06;4.08;;;1.90;;
34072;SDS011;20346;52.702;16.886;2022-08-21T15:01:52;2.65;;;1.77;;
34072;SDS011;20346;52.702;16.886;2022-08-21T15:04:37;3.50;;;1.80;;
34072;SDS011;20346;52.702;16.886;2022-08-21T15:07:22;3.83;;;2.12;;
34072;SDS011;20346;52.702;16.886;2022-08-21T15:10:07;6.03;;;2.10;;
34072;SDS011;20346;52.702;16.886;2022-08-21T15:12:53;2.65;;;1.90;;
34072;SDS011;20346;52.702;16.886;2022-08-21T15:15:40;2.80;;;1.75;;
34072;SDS011;20346;52.702;16.886;2022-08-21T15:18:28;3.65;;;2.00;;
34072;SDS011;20346;52.702;16.886;2022-08-21T15:21:14;2.70;;;2.20;;
34072;SDS011;20346;52.702;16.886;2022-08-21T15:23:59;5.10;;;1.95;;
34072;SDS011;20346;52.702;16.886;2022-08-21T15:26:44;5.50;;;4.05;;
34072;SDS011;20346;52.702;16.886;2022-08-21T15:29:31;4.28;;;2.62;;
34072;SDS011;20346;52.702;16.886;2022-08-21T15:32:21;3.52;;;1.98;;
34072;SDS011;20346;52.702;16.886;2022-08-21T15:35:11;3.85;;;2.33;;
34072;SDS011;20346;52.702;16.886;2022-08-21T15:37:57;2.72;;;1.77;;
34072;SDS011;20346;52.702;16.886;2022-08-21T15:40:42;3.17;;;1.82;;
34072;SDS011;20346;52.702;16.886;2022-08-21T15:43:29;7.80;;;1.80;;
34072;SDS011;20346;52.702;16.886;2022-08-21T15:46:19;5.45;;;1.85;;
34072;SDS011;20346;52.702;16.886;2022-08-21T15:49:04;4.47;;;2.90;;
34072;SDS011;20346;52.702;16.886;2022-08-21T15:51:50;8.20;;;1.85;;
34072;SDS011;20346;52.702;16.886;2022-08-21T15:54:35;3.58;;;2.40;;
34072;SDS011;20346;52.702;16.886;2022-08-21T15:57:21;2.77;;;1.70;;
34072;SDS011;20346;52.702;16.886;2022-08-21T16:00:12;3.67;;;1.85;;
34072;SDS011;20346;52.702;16.886;2022-08-21T16:03:06;3.75;;;2.10;;
34072;SDS011;20346;52.702;16.886;2022-08-21T16:05:55;8.20;;;1.82;;
34072;SDS011;20346;52.702;16.886;2022-08-21T16:08:40;4.03;;;2.27;;
34072;SDS011;20346;52.702;16.886;2022-08-21T16:11:25;5.28;;;2.30;;
34072;SDS011;20346;52.702;16.886;2022-08-21T16:14:12;3.05;;;1.80;;
34072;SDS011;20346;52.702;16.886;2022-08-21T16:16:59;2.42;;;1.85;;
34072;SDS011;20346;52.702;16.886;2022-08-21T16:19:44;2.00;;;1.72;;
34072;SDS011;20346;52.702;16.886;2022-08-21T16:22:29;3.25;;;1.72;;
34072;SDS011;20346;52.702;16.886;2022-08-21T16:25:15;6.17;;;2.30;;
34072;SDS011;20346;52.702;16.886;2022-08-21T16:28:01;4.22;;;2.10;;
34072;SDS011;20346;52.702;16.886;2022-08-21T16:30:48;3.52;;;2.42;;
34072;SDS011;20346;52.702;16.886;2022-08-21T16:33:39;2.30;;;2.08;;
34072;SDS011;20346;52.702;16.886;2022-08-21T16:36:28;4.58;;;2.70;;
34072;SDS011;20346;52.702;16.886;2022-08-21T16:39:13;4.33;;;2.60;;
34072;SDS011;20346;52.702;16.886;2022-08-21T16:41:58;4.08;;;2.85;;
34072;SDS011;20346;52.702;16.886;2022-08-21T16:44:43;5.55;;;3.02;;
34072;SDS011;20346;52.702;16.886;2022-08-21T16:47:28;3.85;;;2.95;;
34072;SDS011;20346;52.702;16.886;2022-08-21T16:50:15;3.58;;;2.87;;
34072;SDS011;20346;52.702;16.886;2022-08-21T16:53:05;4.92;;;3.37;;
34072;SDS011;20346;52.702;16.886;2022-08-21T16:55:50;8.53;;;3.50;;
34072;SDS011;20346;52.702;16.886;2022-08-21T16:58:37;4.10;;;3.60;;
34072;SDS011;20346;52.702;16.886;2022-08-21T17:01:28;4.70;;;3.80;;
34072;SDS011;20346;52.702;16.886;2022-08-21T17:04:15;9.78;;;4.60;;
34072;SDS011;20346;52.702;16.886;2022-08-21T17:07:00;5.20;;;4.08;;
34072;SDS011;20346;52.702;16.886;2022-08-21T17:09:45;5.75;;;3.60;;
34072;SDS011;20346;52.702;16.886;2022-08-21T17:12:30;6.95;;;3.02;;
34072;SDS011;20346;52.702;16.886;2022-08-21T17:15:17;5.65;;;2.35;;
34072;SDS011;20346;52.702;16.886;2022-08-21T17:18:07;4.72;;;2.42;;
34072;SDS011;20346;52.702;16.886;2022-08-21T17:20:56;4.25;;;1.72;;
34072;SDS011;20346;52.702;16.886;2022-08-21T17:23:41;2.70;;;2.50;;
34072;SDS011;20346;52.702;16.886;2022-08-21T17:26:26;3.30;;;1.95;;
34072;SDS011;20346;52.702;16.886;2022-08-21T17:29:11;2.47;;;1.42;;
34072;SDS011;20346;52.702;16.886;2022-08-21T17:31:58;6.75;;;1.57;;
34072;SDS011;20346;52.702;16.886;2022-08-21T17:34:43;3.58;;;1.80;;
34072;SDS011;20346;52.702;16.886;2022-08-21T17:37:29;5.25;;;2.12;;
34072;SDS011;20346;52.702;16.886;2022-08-21T17:40:14;1.92;;;1.40;;
34072;SDS011;20346;52.702;16.886;2022-08-21T17:43:00;6.00;;;2.00;;
34072;SDS011;20346;52.702;16.886;2022-08-21T17:45:45;2.22;;;1.40;;
34072;SDS011;20346;52.702;16.886;2022-08-21T17:48:30;2.95;;;2.12;;
34072;SDS011;20346;52.702;16.886;2022-08-21T17:51:17;3.70;;;2.00;;
34072;SDS011;20346;52.702;16.886;2022-08-21T17:54:03;4.20;;;2.15;;
34072;SDS011;20346;52.702;16.886;2022-08-21T17:56:48;4.37;;;1.90;;
34072;SDS011;20346;52.702;16.886;2022-08-21T17:59:34;4.75;;;2.02;;
34072;SDS011;20346;52.702;16.886;2022-08-21T18:02:19;3.70;;;2.50;;
34072;SDS011;20346;52.702;16.886;2022-08-21T18:05:06;2.90;;;2.42;;
34072;SDS011;20346;52.702;16.886;2022-08-21T18:07:53;2.67;;;2.33;;